Impacts TAF Board
For situational awareness. Not to be used for flight planning purposes.
IDs:

KOPF - Miami/Opa Locka Arpt, FL, US

Issued at 1720 UTC 21 Sep 2021
Updated at 2043 UTC 21 Sep 2021
Potential Impact None Slight Moderate High
Time2029Z 21/21Z 21/22Z 21/23Z 22/00Z 22/01Z 22/02Z 22/03Z 22/04Z 22/05Z 22/06Z 22/07Z 22/08Z 22/09Z>>
Type OBS PRVL PRVL PRVL PRVL PRVL PRVL PRVL PRVL PRVL PRVL PRVL PRVL PRVL
VIS 10 >6 >6 >6 >6 >6 >6 >6 >6 >6 >6 >6 >6 >6
CIG 120 50 50 50 -- -- -- -- -- -- -- -- -- --
Cover BKN BKN BKN BKN SCT SCT SCT SCT SCT SCT SCT SCT SCT SCT
FltCat VFR VFR VFR VFR VFR VFR VFR VFR VFR VFR VFR VFR VFR VFR
WX -- VCTS VCTS VCTS -- -- -- -- -- -- -- -- -- --
WDir 20 100 100 100 VRB VRB VRB VRB VRB VRB VRB VRB VRB VRB
WSpd 5 10 10 10 5 5 5 5 5 5 5 5 5 5
WGst -- -- -- -- -- -- -- -- -- -- -- -- -- --
Raw TAF
KOPF 211720Z 2118/2218 10010KT P6SM VCTS SCT030CB BKN050
  FM220000 VRB05KT P6SM FEW025 SCT250
  FM221400 12007KT P6SM SCT030 SCT050
  FM221700 16010KT P6SM VCTS SCT030CB BKN050


Raw METAR
KOPF 212029Z 02005KT 10SM FEW100 BKN120 27/22 A3001 RMK AO2 LTG DSNT W AND NW TSE05B08E23 T02720217
KOPF 211953Z 07007KT 10SM TS FEW060 SCT090 29/23 A3000 RMK AO2 LTG DSNT SW-NW RAB05E15 TSB50 SLP160 P0000 T02890228
KOPF 211923Z 13007KT 10SM VCTS FEW029 SCT042 BKN060 30/22 A3000 RMK AO2 LTG DSNT SW AND W RAB05E15 P0000 T03000222
KOPF 211853Z 16007KT 10SM SCT030 31/24 A3000 RMK AO2 LTG DSNT SW SLP160 T03060239
KOPF 211848Z 14007KT 10SM SCT030 31/23 A3000 RMK AO2 LTG DSNT SW
KOPF 211833Z 12008KT 10SM VCTS CLR 31/23 A3000 RMK AO2 T03060233
KOPF 211753Z 10003KT 10SM CLR 31/24 A3001 RMK AO2 SLP164 60000 T03060239 10306 20261 58014

METAR Board
Radar Display
Forecast Discussion
For situational awareness. Not to be used for flight planning purposes.